Impacts TAF Board INFO
FOR SITUATIONAL AWARENESS. NOT TO BE USED FOR FLIGHT PLANNING PURPOSES.
IDs:

KGPT - Gulfport-Biloxi Intl, MS, US

Issued at 1120 UTC 22 Nov 2017
Updated at 1308 UTC 22 Nov 2017
Potential Impact None Slight Moderate High
Time1253Z 22/14Z 22/15Z 22/16Z 22/17Z 22/18Z 22/19Z 22/20Z 22/21Z 22/22Z 22/23Z 23/00Z 23/01Z 23/02Z>>
Type OBS PRVL PRVL PRVL PRVL PRVL PRVL PRVL PRVL PRVL PRVL PRVL PRVL PRVL
VIS 10 >6 >6 >6 >6 >6 >6 >6 >6 >6 >6 >6 >6 >6
CIG -- -- -- -- -- -- -- -- -- -- -- -- -- --
Cover CLR SKC SKC SKC SKC SKC SKC SKC SKC SKC SKC SKC SKC SKC
FltCat VFR VFR VFR VFR VFR VFR VFR VFR VFR VFR VFR VFR VFR VFR
WX -- -- -- -- -- -- -- -- -- -- -- -- -- --
WDir 360 10 10 10 10 10 10 10 10 10 10 10 10 10
WSpd 7 6 6 6 6 6 6 6 6 6 6 6 6 6
WGst -- -- -- -- -- -- -- -- -- -- -- -- -- --

Raw TAF
KGPT 221120Z 2212/2312 01006KT P6SM SKC

Raw METAR
KGPT 221253Z 36007KT 10SM CLR 12/06 A3009 RMK AO2 SLP187 T01170061
KGPT 221153Z 01006KT 9SM CLR 12/07 A3007 RMK AO2 SLP181 T01220072 10144 20122 53015
KGPT 221053Z AUTO 01006KT 10SM CLR 13/07 A3004 RMK AO2 SLP171 T01280072

METAR Board
Radar Display
Forecast Discussion

FOR SITUATIONAL AWARENESS. NOT TO BE USED FOR FLIGHT PLANNING PURPOSES.